sensor_id;sensor_type;location;lat;lon;timestamp;temperature;humidity
23685;DHT22;12020;51.384;6.908;2023-07-31T00:01:56;17.20;99.90
23685;DHT22;12020;51.384;6.908;2023-07-31T00:04:21;17.20;99.90
23685;DHT22;12020;51.384;6.908;2023-07-31T00:06:47;17.20;99.90
23685;DHT22;12020;51.384;6.908;2023-07-31T00:09:13;17.20;99.90
23685;DHT22;12020;51.384;6.908;2023-07-31T00:11:38;17.10;99.90
23685;DHT22;12020;51.384;6.908;2023-07-31T00:14:04;17.20;99.90
23685;DHT22;12020;51.384;6.908;2023-07-31T00:16:29;17.10;99.90
23685;DHT22;12020;51.384;6.908;2023-07-31T00:18:55;17.10;99.90
23685;DHT22;12020;51.384;6.908;2023-07-31T00:21:21;17.10;99.90
23685;DHT22;12020;51.384;6.908;2023-07-31T00:23:46;17.10;99.90
23685;DHT22;12020;51.384;6.908;2023-07-31T00:26:12;17.10;99.90
23685;DHT22;12020;51.384;6.908;2023-07-31T00:28:38;17.20;99.90
23685;DHT22;12020;51.384;6.908;2023-07-31T00:31:03;17.10;99.90
23685;DHT22;12020;51.384;6.908;2023-07-31T00:33:30;17.10;99.90
23685;DHT22;12020;51.384;6.908;2023-07-31T00:35:56;17.20;99.90
23685;DHT22;12020;51.384;6.908;2023-07-31T00:38:22;17.10;99.90
23685;DHT22;12020;51.384;6.908;2023-07-31T00:40:48;17.10;99.90
23685;DHT22;12020;51.384;6.908;2023-07-31T00:43:13;17.10;99.90
23685;DHT22;12020;51.384;6.908;2023-07-31T00:45:39;17.10;99.90
23685;DHT22;12020;51.384;6.908;2023-07-31T00:48:04;17.10;99.90
23685;DHT22;12020;51.384;6.908;2023-07-31T00:50:32;17.10;99.90
23685;DHT22;12020;51.384;6.908;2023-07-31T00:52:58;17.10;99.90
23685;DHT22;12020;51.384;6.908;2023-07-31T00:55:24;17.10;99.90
23685;DHT22;12020;51.384;6.908;2023-07-31T00:57:50;17.00;99.90
23685;DHT22;12020;51.384;6.908;2023-07-31T01:00:18;17.00;99.90
23685;DHT22;12020;51.384;6.908;2023-07-31T01:02:43;17.10;99.90
23685;DHT22;12020;51.384;6.908;2023-07-31T01:05:12;17.10;99.90
23685;DHT22;12020;51.384;6.908;2023-07-31T01:12:32;17.10;99.90
23685;DHT22;12020;51.384;6.908;2023-07-31T01:17:28;17.10;99.90
23685;DHT22;12020;51.384;6.908;2023-07-31T01:19:54;17.10;99.90
23685;DHT22;12020;51.384;6.908;2023-07-31T01:22:23;17.10;99.90
23685;DHT22;12020;51.384;6.908;2023-07-31T01:27:34;17.10;99.90
23685;DHT22;12020;51.384;6.908;2023-07-31T01:32:35;17.10;99.90
23685;DHT22;12020;51.384;6.908;2023-07-31T01:35:01;17.10;99.90
23685;DHT22;12020;51.384;6.908;2023-07-31T01:37:30;17.10;99.90
23685;DHT22;12020;51.384;6.908;2023-07-31T01:39:56;17.10;99.90
23685;DHT22;12020;51.384;6.908;2023-07-31T01:42:21;17.10;99.90
23685;DHT22;12020;51.384;6.908;2023-07-31T01:44:47;17.10;99.90
23685;DHT22;12020;51.384;6.908;2023-07-31T01:47:13;17.10;99.90
23685;DHT22;12020;51.384;6.908;2023-07-31T01:49:38;17.10;99.90
23685;DHT22;12020;51.384;6.908;2023-07-31T01:52:04;17.00;99.90
23685;DHT22;12020;51.384;6.908;2023-07-31T01:54:30;17.10;99.90
23685;DHT22;12020;51.384;6.908;2023-07-31T01:56:55;17.10;99.90
23685;DHT22;12020;51.384;6.908;2023-07-31T01:59:22;17.10;99.90
23685;DHT22;12020;51.384;6.908;2023-07-31T02:01:48;17.10;99.90
23685;DHT22;12020;51.384;6.908;2023-07-31T02:04:14;17.00;99.90
23685;DHT22;12020;51.384;6.908;2023-07-31T02:06:40;17.00;99.90
23685;DHT22;12020;51.384;6.908;2023-07-31T02:09:05;17.10;99.90
23685;DHT22;12020;51.384;6.908;2023-07-31T02:11:31;17.10;99.90
23685;DHT22;12020;51.384;6.908;2023-07-31T02:13:58;17.10;99.90
23685;DHT22;12020;51.384;6.908;2023-07-31T02:16:24;17.10;99.90
23685;DHT22;12020;51.384;6.908;2023-07-31T02:18:50;17.10;99.90
23685;DHT22;12020;51.384;6.908;2023-07-31T02:21:15;17.00;99.90
23685;DHT22;12020;51.384;6.908;2023-07-31T02:23:41;17.10;99.90
23685;DHT22;12020;51.384;6.908;2023-07-31T02:26:08;17.10;99.90
23685;DHT22;12020;51.384;6.908;2023-07-31T02:28:33;17.00;99.90
23685;DHT22;12020;51.384;6.908;2023-07-31T02:31:00;17.00;99.90
23685;DHT22;12020;51.384;6.908;2023-07-31T02:33:33;17.00;99.90
23685;DHT22;12020;51.384;6.908;2023-07-31T02:35:59;17.00;99.90
23685;DHT22;12020;51.384;6.908;2023-07-31T02:38:24;17.00;99.90
23685;DHT22;12020;51.384;6.908;2023-07-31T02:40:50;17.00;99.90
23685;DHT22;12020;51.384;6.908;2023-07-31T02:43:16;17.00;99.90
23685;DHT22;12020;51.384;6.908;2023-07-31T02:45:42;17.10;99.90
23685;DHT22;12020;51.384;6.908;2023-07-31T02:48:08;17.10;99.90
23685;DHT22;12020;51.384;6.908;2023-07-31T02:50:34;17.10;99.90
23685;DHT22;12020;51.384;6.908;2023-07-31T02:53:00;17.10;99.90
23685;DHT22;12020;51.384;6.908;2023-07-31T02:55:26;17.10;99.90
23685;DHT22;12020;51.384;6.908;2023-07-31T02:57:52;17.10;99.90
23685;DHT22;12020;51.384;6.908;2023-07-31T03:00:18;17.10;99.90
23685;DHT22;12020;51.384;6.908;2023-07-31T03:02:44;17.10;99.90
23685;DHT22;12020;51.384;6.908;2023-07-31T03:05:09;17.10;99.90
23685;DHT22;12020;51.384;6.908;2023-07-31T03:07:36;17.10;99.90
23685;DHT22;12020;51.384;6.908;2023-07-31T03:10:02;17.10;99.90
23685;DHT22;12020;51.384;6.908;2023-07-31T03:12:28;17.00;99.90
23685;DHT22;12020;51.384;6.908;2023-07-31T03:14:54;17.10;99.90
23685;DHT22;12020;51.384;6.908;2023-07-31T03:17:19;17.10;99.90
23685;DHT22;12020;51.384;6.908;2023-07-31T03:19:44;17.10;99.90
23685;DHT22;12020;51.384;6.908;2023-07-31T03:22:10;17.10;99.90
23685;DHT22;12020;51.384;6.908;2023-07-31T03:24:36;17.10;99.90
23685;DHT22;12020;51.384;6.908;2023-07-31T03:27:02;17.10;99.90
23685;DHT22;12020;51.384;6.908;2023-07-31T03:29:28;17.10;99.90
23685;DHT22;12020;51.384;6.908;2023-07-31T03:31:53;17.10;99.90
23685;DHT22;12020;51.384;6.908;2023-07-31T03:34:19;17.10;99.90
23685;DHT22;12020;51.384;6.908;2023-07-31T03:36:44;17.10;99.90
23685;DHT22;12020;51.384;6.908;2023-07-31T03:39:10;17.20;99.90
23685;DHT22;12020;51.384;6.908;2023-07-31T03:41:37;17.10;99.90
23685;DHT22;12020;51.384;6.908;2023-07-31T03:44:02;17.20;99.90
23685;DHT22;12020;51.384;6.908;2023-07-31T03:46:28;17.20;99.90
23685;DHT22;12020;51.384;6.908;2023-07-31T03:48:55;17.10;99.90
23685;DHT22;12020;51.384;6.908;2023-07-31T03:51:21;17.20;99.90
23685;DHT22;12020;51.384;6.908;2023-07-31T03:53:47;17.20;99.90
23685;DHT22;12020;51.384;6.908;2023-07-31T03:56:13;17.20;99.90
23685;DHT22;12020;51.384;6.908;2023-07-31T03:58:38;17.20;99.90
23685;DHT22;12020;51.384;6.908;2023-07-31T04:01:04;17.20;99.90
23685;DHT22;12020;51.384;6.908;2023-07-31T04:03:29;17.20;99.90
23685;DHT22;12020;51.384;6.908;2023-07-31T04:05:55;17.20;99.90
23685;DHT22;12020;51.384;6.908;2023-07-31T04:08:27;17.20;99.90
23685;DHT22;12020;51.384;6.908;2023-07-31T04:10:52;17.30;99.90
23685;DHT22;12020;51.384;6.908;2023-07-31T04:13:18;17.30;99.90
23685;DHT22;12020;51.384;6.908;2023-07-31T04:15:50;17.30;99.90
23685;DHT22;12020;51.384;6.908;2023-07-31T04:18:16;17.30;99.90
23685;DHT22;12020;51.384;6.908;2023-07-31T04:20:42;17.30;99.90
23685;DHT22;12020;51.384;6.908;2023-07-31T04:23:08;17.30;99.90
23685;DHT22;12020;51.384;6.908;2023-07-31T04:25:33;17.30;99.90
23685;DHT22;12020;51.384;6.908;2023-07-31T04:28:00;17.30;99.90
23685;DHT22;12020;51.384;6.908;2023-07-31T04:30:26;17.30;99.90
23685;DHT22;12020;51.384;6.908;2023-07-31T04:32:52;17.30;99.90
23685;DHT22;12020;51.384;6.908;2023-07-31T04:35:17;17.30;99.90
23685;DHT22;12020;51.384;6.908;2023-07-31T04:37:43;17.30;99.90
23685;DHT22;12020;51.384;6.908;2023-07-31T04:40:11;17.30;99.90
23685;DHT22;12020;51.384;6.908;2023-07-31T04:42:37;17.20;99.90
23685;DHT22;12020;51.384;6.908;2023-07-31T04:45:03;17.30;99.90
23685;DHT22;12020;51.384;6.908;2023-07-31T04:47:29;17.30;99.90
23685;DHT22;12020;51.384;6.908;2023-07-31T04:49:56;17.30;99.90
23685;DHT22;12020;51.384;6.908;2023-07-31T04:52:21;17.30;99.90
23685;DHT22;12020;51.384;6.908;2023-07-31T04:54:47;17.30;99.90
23685;DHT22;12020;51.384;6.908;2023-07-31T04:57:14;17.30;99.90
23685;DHT22;12020;51.384;6.908;2023-07-31T04:59:39;17.30;99.90
23685;DHT22;12020;51.384;6.908;2023-07-31T05:02:06;17.30;99.90
23685;DHT22;12020;51.384;6.908;2023-07-31T05:04:32;17.30;99.90
23685;DHT22;12020;51.384;6.908;2023-07-31T05:06:58;17.40;99.90
23685;DHT22;12020;51.384;6.908;2023-07-31T05:09:23;17.30;99.90
23685;DHT22;12020;51.384;6.908;2023-07-31T05:11:50;17.40;99.90
23685;DHT22;12020;51.384;6.908;2023-07-31T05:14:15;17.40;99.90
23685;DHT22;12020;51.384;6.908;2023-07-31T05:16:41;17.40;99.90
23685;DHT22;12020;51.384;6.908;2023-07-31T05:19:06;17.40;99.90
23685;DHT22;12020;51.384;6.908;2023-07-31T05:21:32;17.40;99.90
23685;DHT22;12020;51.384;6.908;2023-07-31T05:23:58;17.50;99.90
23685;DHT22;12020;51.384;6.908;2023-07-31T05:26:24;17.50;99.90
23685;DHT22;12020;51.384;6.908;2023-07-31T05:28:50;17.50;99.90
23685;DHT22;12020;51.384;6.908;2023-07-31T05:31:16;17.50;99.90
23685;DHT22;12020;51.384;6.908;2023-07-31T05:33:41;17.50;99.90
23685;DHT22;12020;51.384;6.908;2023-07-31T05:36:07;17.50;99.90
23685;DHT22;12020;51.384;6.908;2023-07-31T05:38:33;17.50;99.90
23685;DHT22;12020;51.384;6.908;2023-07-31T05:40:59;17.50;99.90
23685;DHT22;12020;51.384;6.908;2023-07-31T05:43:24;17.40;99.90
23685;DHT22;12020;51.384;6.908;2023-07-31T05:45:51;17.40;99.90
23685;DHT22;12020;51.384;6.908;2023-07-31T05:48:17;17.40;99.90
23685;DHT22;12020;51.384;6.908;2023-07-31T05:50:44;17.40;99.90
23685;DHT22;12020;51.384;6.908;2023-07-31T05:53:10;17.40;99.90
23685;DHT22;12020;51.384;6.908;2023-07-31T05:55:36;17.40;99.90
23685;DHT22;12020;51.384;6.908;2023-07-31T05:58:02;17.40;99.90
23685;DHT22;12020;51.384;6.908;2023-07-31T06:00:28;17.50;99.90
23685;DHT22;12020;51.384;6.908;2023-07-31T06:02:54;17.50;99.90
23685;DHT22;12020;51.384;6.908;2023-07-31T06:05:20;17.50;99.90
23685;DHT22;12020;51.384;6.908;2023-07-31T06:07:46;17.50;99.90
23685;DHT22;12020;51.384;6.908;2023-07-31T06:10:13;17.50;99.90
23685;DHT22;12020;51.384;6.908;2023-07-31T06:12:39;17.50;99.90
23685;DHT22;12020;51.384;6.908;2023-07-31T06:15:05;17.50;99.90
23685;DHT22;12020;51.384;6.908;2023-07-31T06:17:31;17.50;99.90
23685;DHT22;12020;51.384;6.908;2023-07-31T06:19:56;17.60;99.90
23685;DHT22;12020;51.384;6.908;2023-07-31T06:22:22;17.60;99.90
23685;DHT22;12020;51.384;6.908;2023-07-31T06:24:48;17.50;99.90
23685;DHT22;12020;51.384;6.908;2023-07-31T06:27:13;17.50;99.90
23685;DHT22;12020;51.384;6.908;2023-07-31T06:29:39;17.50;99.90
23685;DHT22;12020;51.384;6.908;2023-07-31T06:32:05;17.50;99.90
23685;DHT22;12020;51.384;6.908;2023-07-31T06:34:31;17.50;99.90
23685;DHT22;12020;51.384;6.908;2023-07-31T06:36:57;17.60;99.90
23685;DHT22;12020;51.384;6.908;2023-07-31T06:39:24;17.50;99.90
23685;DHT22;12020;51.384;6.908;2023-07-31T06:41:50;17.60;99.90
23685;DHT22;12020;51.384;6.908;2023-07-31T06:44:15;17.60;99.90
23685;DHT22;12020;51.384;6.908;2023-07-31T06:46:42;17.50;99.90
23685;DHT22;12020;51.384;6.908;2023-07-31T06:49:07;17.50;99.90
23685;DHT22;12020;51.384;6.908;2023-07-31T06:51:34;17.50;99.90
23685;DHT22;12020;51.384;6.908;2023-07-31T06:54:01;17.50;99.90
23685;DHT22;12020;51.384;6.908;2023-07-31T06:56:27;17.50;99.90
23685;DHT22;12020;51.384;6.908;2023-07-31T06:58:54;17.50;99.90
23685;DHT22;12020;51.384;6.908;2023-07-31T07:01:21;17.50;99.90
23685;DHT22;12020;51.384;6.908;2023-07-31T07:03:47;17.50;99.90
23685;DHT22;12020;51.384;6.908;2023-07-31T07:06:16;17.50;99.90
23685;DHT22;12020;51.384;6.908;2023-07-31T07:08:43;17.50;99.90
23685;DHT22;12020;51.384;6.908;2023-07-31T07:11:09;17.50;99.90
23685;DHT22;12020;51.384;6.908;2023-07-31T07:13:34;17.50;99.90
23685;DHT22;12020;51.384;6.908;2023-07-31T07:16:00;17.50;99.90
23685;DHT22;12020;51.384;6.908;2023-07-31T07:18:26;17.50;99.90
23685;DHT22;12020;51.384;6.908;2023-07-31T07:20:53;17.50;99.90
23685;DHT22;12020;51.384;6.908;2023-07-31T07:23:19;17.50;99.90
23685;DHT22;12020;51.384;6.908;2023-07-31T07:25:46;17.50;99.90
23685;DHT22;12020;51.384;6.908;2023-07-31T07:28:13;17.50;99.90
23685;DHT22;12020;51.384;6.908;2023-07-31T07:30:39;17.50;99.90
23685;DHT22;12020;51.384;6.908;2023-07-31T07:33:05;17.50;99.90
23685;DHT22;12020;51.384;6.908;2023-07-31T07:35:33;17.40;99.90
23685;DHT22;12020;51.384;6.908;2023-07-31T07:37:59;17.40;99.90
23685;DHT22;12020;51.384;6.908;2023-07-31T07:40:26;17.40;99.90
23685;DHT22;12020;51.384;6.908;2023-07-31T07:42:51;17.40;99.90
23685;DHT22;12020;51.384;6.908;2023-07-31T07:45:17;17.40;99.90
23685;DHT22;12020;51.384;6.908;2023-07-31T07:47:43;17.40;99.90
23685;DHT22;12020;51.384;6.908;2023-07-31T07:50:10;17.40;99.90
23685;DHT22;12020;51.384;6.908;2023-07-31T07:52:35;17.40;99.90
23685;DHT22;12020;51.384;6.908;2023-07-31T07:55:01;17.50;99.90
23685;DHT22;12020;51.384;6.908;2023-07-31T07:57:28;17.50;99.90
23685;DHT22;12020;51.384;6.908;2023-07-31T07:59:54;17.50;99.90
23685;DHT22;12020;51.384;6.908;2023-07-31T08:02:19;17.50;99.90
23685;DHT22;12020;51.384;6.908;2023-07-31T08:04:45;17.50;99.90
23685;DHT22;12020;51.384;6.908;2023-07-31T08:07:11;17.50;99.90
23685;DHT22;12020;51.384;6.908;2023-07-31T08:09:38;17.50;99.90
23685;DHT22;12020;51.384;6.908;2023-07-31T08:12:04;17.50;99.90
23685;DHT22;12020;51.384;6.908;2023-07-31T08:14:31;17.50;99.90
23685;DHT22;12020;51.384;6.908;2023-07-31T08:16:56;17.50;99.90
23685;DHT22;12020;51.384;6.908;2023-07-31T08:19:22;17.50;99.90
23685;DHT22;12020;51.384;6.908;2023-07-31T08:21:47;17.50;99.90
23685;DHT22;12020;51.384;6.908;2023-07-31T08:24:14;17.50;99.90
23685;DHT22;12020;51.384;6.908;2023-07-31T08:26:40;17.50;99.90
23685;DHT22;12020;51.384;6.908;2023-07-31T08:29:05;17.50;99.90
23685;DHT22;12020;51.384;6.908;2023-07-31T08:31:31;17.60;99.90
23685;DHT22;12020;51.384;6.908;2023-07-31T08:33:57;17.50;99.90
23685;DHT22;12020;51.384;6.908;2023-07-31T08:38:51;17.60;99.90
23685;DHT22;12020;51.384;6.908;2023-07-31T08:41:17;17.60;99.90
23685;DHT22;12020;51.384;6.908;2023-07-31T08:43:44;17.60;99.90
23685;DHT22;12020;51.384;6.908;2023-07-31T08:46:11;17.50;99.90
23685;DHT22;12020;51.384;6.908;2023-07-31T08:48:37;17.50;99.90
23685;DHT22;12020;51.384;6.908;2023-07-31T08:51:03;17.60;99.90
23685;DHT22;12020;51.384;6.908;2023-07-31T08:53:30;17.50;99.90
23685;DHT22;12020;51.384;6.908;2023-07-31T08:55:57;17.50;99.90
23685;DHT22;12020;51.384;6.908;2023-07-31T08:58:24;17.50;99.90
23685;DHT22;12020;51.384;6.908;2023-07-31T09:00:50;17.60;99.90
23685;DHT22;12020;51.384;6.908;2023-07-31T09:03:17;17.60;99.90
23685;DHT22;12020;51.384;6.908;2023-07-31T09:05:44;17.60;99.90
23685;DHT22;12020;51.384;6.908;2023-07-31T09:08:10;17.60;99.90
23685;DHT22;12020;51.384;6.908;2023-07-31T09:10:44;17.50;99.90
23685;DHT22;12020;51.384;6.908;2023-07-31T09:13:13;17.50;99.90
23685;DHT22;12020;51.384;6.908;2023-07-31T09:15:40;17.50;99.90
23685;DHT22;12020;51.384;6.908;2023-07-31T09:18:07;17.50;99.90
23685;DHT22;12020;51.384;6.908;2023-07-31T09:20:33;17.50;99.90
23685;DHT22;12020;51.384;6.908;2023-07-31T09:23:09;17.50;99.90
23685;DHT22;12020;51.384;6.908;2023-07-31T09:25:36;17.50;99.90
23685;DHT22;12020;51.384;6.908;2023-07-31T09:30:30;17.50;99.90
23685;DHT22;12020;51.384;6.908;2023-07-31T09:33:01;17.50;99.90
23685;DHT22;12020;51.384;6.908;2023-07-31T09:35:30;17.50;99.90
23685;DHT22;12020;51.384;6.908;2023-07-31T09:38:06;17.50;99.90
23685;DHT22;12020;51.384;6.908;2023-07-31T09:40:36;17.50;99.90
23685;DHT22;12020;51.384;6.908;2023-07-31T09:43:21;17.50;99.90
23685;DHT22;12020;51.384;6.908;2023-07-31T09:45:47;17.50;99.90
23685;DHT22;12020;51.384;6.908;2023-07-31T09:48:14;17.50;99.90
23685;DHT22;12020;51.384;6.908;2023-07-31T09:50:47;17.50;99.90
23685;DHT22;12020;51.384;6.908;2023-07-31T09:53:12;17.60;99.90
23685;DHT22;12020;51.384;6.908;2023-07-31T09:55:39;17.60;99.90
23685;DHT22;12020;51.384;6.908;2023-07-31T09:58:07;17.60;99.90
23685;DHT22;12020;51.384;6.908;2023-07-31T10:00:33;17.60;99.90
23685;DHT22;12020;51.384;6.908;2023-07-31T10:02:59;17.70;99.90
23685;DHT22;12020;51.384;6.908;2023-07-31T10:05:49;17.60;99.90
23685;DHT22;12020;51.384;6.908;2023-07-31T10:08:16;17.70;99.90
23685;DHT22;12020;51.384;6.908;2023-07-31T10:10:44;17.70;99.90
23685;DHT22;12020;51.384;6.908;2023-07-31T10:13:10;17.70;99.90
23685;DHT22;12020;51.384;6.908;2023-07-31T10:15:36;17.70;99.90
23685;DHT22;12020;51.384;6.908;2023-07-31T10:18:02;17.70;99.90
23685;DHT22;12020;51.384;6.908;2023-07-31T10:20:28;17.70;99.90
23685;DHT22;12020;51.384;6.908;2023-07-31T10:22:57;17.70;99.90
23685;DHT22;12020;51.384;6.908;2023-07-31T10:25:22;17.60;99.90
23685;DHT22;12020;51.384;6.908;2023-07-31T10:27:50;17.70;99.90
23685;DHT22;12020;51.384;6.908;2023-07-31T10:30:16;17.60;99.90
23685;DHT22;12020;51.384;6.908;2023-07-31T10:32:43;17.70;99.90
23685;DHT22;12020;51.384;6.908;2023-07-31T10:35:09;17.60;99.90
23685;DHT22;12020;51.384;6.908;2023-07-31T10:37:36;17.60;99.90
23685;DHT22;12020;51.384;6.908;2023-07-31T10:40:18;17.60;99.90
23685;DHT22;12020;51.384;6.908;2023-07-31T10:45:13;17.70;99.90
23685;DHT22;12020;51.384;6.908;2023-07-31T10:47:43;17.70;99.90
23685;DHT22;12020;51.384;6.908;2023-07-31T10:50:19;17.70;99.90
23685;DHT22;12020;51.384;6.908;2023-07-31T10:52:55;17.80;99.90
23685;DHT22;12020;51.384;6.908;2023-07-31T10:57:49;17.80;99.90
23685;DHT22;12020;51.384;6.908;2023-07-31T11:00:27;17.90;99.90
23685;DHT22;12020;51.384;6.908;2023-07-31T11:03:12;17.90;99.90
23685;DHT22;12020;51.384;6.908;2023-07-31T11:08:23;18.00;99.90
23685;DHT22;12020;51.384;6.908;2023-07-31T11:13:31;18.10;99.90
23685;DHT22;12020;51.384;6.908;2023-07-31T11:15:57;18.10;99.90
23685;DHT22;12020;51.384;6.908;2023-07-31T11:18:23;18.10;99.90
23685;DHT22;12020;51.384;6.908;2023-07-31T11:20:48;18.10;99.90
23685;DHT22;12020;51.384;6.908;2023-07-31T11:23:22;18.20;99.90
23685;DHT22;12020;51.384;6.908;2023-07-31T11:25:47;18.20;99.90
23685;DHT22;12020;51.384;6.908;2023-07-31T11:28:14;18.20;99.90
23685;DHT22;12020;51.384;6.908;2023-07-31T11:30:41;18.20;99.90
23685;DHT22;12020;51.384;6.908;2023-07-31T11:33:07;18.20;99.90
23685;DHT22;12020;51.384;6.908;2023-07-31T11:35:33;18.30;99.90
23685;DHT22;12020;51.384;6.908;2023-07-31T11:38:00;18.30;99.90
23685;DHT22;12020;51.384;6.908;2023-07-31T11:40:26;18.40;99.90
23685;DHT22;12020;51.384;6.908;2023-07-31T11:42:58;18.40;99.90
23685;DHT22;12020;51.384;6.908;2023-07-31T11:45:27;18.40;99.90
23685;DHT22;12020;51.384;6.908;2023-07-31T11:47:54;18.50;99.90
23685;DHT22;12020;51.384;6.908;2023-07-31T11:50:20;18.50;99.90
23685;DHT22;12020;51.384;6.908;2023-07-31T11:52:46;18.50;99.90
23685;DHT22;12020;51.384;6.908;2023-07-31T11:55:14;18.50;99.90
23685;DHT22;12020;51.384;6.908;2023-07-31T11:57:40;18.50;99.90
23685;DHT22;12020;51.384;6.908;2023-07-31T12:00:07;18.60;99.90
23685;DHT22;12020;51.384;6.908;2023-07-31T12:02:34;18.60;99.90
23685;DHT22;12020;51.384;6.908;2023-07-31T12:05:00;18.60;99.90
23685;DHT22;12020;51.384;6.908;2023-07-31T12:07:26;18.60;99.90
23685;DHT22;12020;51.384;6.908;2023-07-31T12:09:55;18.60;99.90
23685;DHT22;12020;51.384;6.908;2023-07-31T12:12:22;18.60;99.90
23685;DHT22;12020;51.384;6.908;2023-07-31T12:14:48;18.60;99.90
23685;DHT22;12020;51.384;6.908;2023-07-31T12:17:14;18.60;99.90
23685;DHT22;12020;51.384;6.908;2023-07-31T12:19:39;18.60;99.90
23685;DHT22;12020;51.384;6.908;2023-07-31T12:22:12;18.50;99.90
23685;DHT22;12020;51.384;6.908;2023-07-31T12:24:39;18.50;99.90
23685;DHT22;12020;51.384;6.908;2023-07-31T12:27:11;18.50;99.90
23685;DHT22;12020;51.384;6.908;2023-07-31T12:29:37;18.50;99.90
23685;DHT22;12020;51.384;6.908;2023-07-31T12:32:03;18.50;99.90
23685;DHT22;12020;51.384;6.908;2023-07-31T12:34:28;18.50;99.90
23685;DHT22;12020;51.384;6.908;2023-07-31T12:36:55;18.50;99.90
23685;DHT22;12020;51.384;6.908;2023-07-31T12:39:20;18.60;99.90
23685;DHT22;12020;51.384;6.908;2023-07-31T12:41:46;18.60;99.90
23685;DHT22;12020;51.384;6.908;2023-07-31T12:44:11;18.60;99.90
23685;DHT22;12020;51.384;6.908;2023-07-31T12:46:37;18.60;99.90
23685;DHT22;12020;51.384;6.908;2023-07-31T12:49:03;18.60;99.90
23685;DHT22;12020;51.384;6.908;2023-07-31T12:51:29;18.60;99.90
23685;DHT22;12020;51.384;6.908;2023-07-31T12:53:55;18.60;99.90
23685;DHT22;12020;51.384;6.908;2023-07-31T12:56:21;18.60;99.90
23685;DHT22;12020;51.384;6.908;2023-07-31T12:58:47;18.60;99.90
23685;DHT22;12020;51.384;6.908;2023-07-31T13:01:13;18.60;99.90
23685;DHT22;12020;51.384;6.908;2023-07-31T13:03:40;18.60;99.90
23685;DHT22;12020;51.384;6.908;2023-07-31T13:06:06;18.60;99.90
23685;DHT22;12020;51.384;6.908;2023-07-31T13:08:31;18.60;99.90
23685;DHT22;12020;51.384;6.908;2023-07-31T13:10:57;18.60;99.90
23685;DHT22;12020;51.384;6.908;2023-07-31T13:13:23;18.60;99.90
23685;DHT22;12020;51.384;6.908;2023-07-31T13:15:49;18.60;99.90
23685;DHT22;12020;51.384;6.908;2023-07-31T13:18:14;18.50;99.90
23685;DHT22;12020;51.384;6.908;2023-07-31T13:20:40;18.50;99.90
23685;DHT22;12020;51.384;6.908;2023-07-31T13:23:06;18.50;99.90
23685;DHT22;12020;51.384;6.908;2023-07-31T13:25:31;18.50;99.90
23685;DHT22;12020;51.384;6.908;2023-07-31T13:27:57;18.50;99.90
23685;DHT22;12020;51.384;6.908;2023-07-31T13:30:23;18.60;99.90
23685;DHT22;12020;51.384;6.908;2023-07-31T13:32:51;18.60;99.90
23685;DHT22;12020;51.384;6.908;2023-07-31T13:35:16;18.70;99.90
23685;DHT22;12020;51.384;6.908;2023-07-31T13:37:42;18.70;99.90
23685;DHT22;12020;51.384;6.908;2023-07-31T13:40:07;18.70;99.90
23685;DHT22;12020;51.384;6.908;2023-07-31T13:42:34;18.80;99.90
23685;DHT22;12020;51.384;6.908;2023-07-31T13:44:59;18.90;99.90
23685;DHT22;12020;51.384;6.908;2023-07-31T13:47:27;18.90;99.90
23685;DHT22;12020;51.384;6.908;2023-07-31T13:49:53;19.00;99.90
23685;DHT22;12020;51.384;6.908;2023-07-31T13:52:18;19.00;99.90
23685;DHT22;12020;51.384;6.908;2023-07-31T13:54:44;19.00;99.90
23685;DHT22;12020;51.384;6.908;2023-07-31T13:57:10;19.00;99.90
23685;DHT22;12020;51.384;6.908;2023-07-31T13:59:35;19.10;99.90
23685;DHT22;12020;51.384;6.908;2023-07-31T14:02:02;19.10;99.90
23685;DHT22;12020;51.384;6.908;2023-07-31T14:04:27;19.20;99.90
23685;DHT22;12020;51.384;6.908;2023-07-31T14:06:54;19.20;99.90
23685;DHT22;12020;51.384;6.908;2023-07-31T14:09:20;19.30;99.90
23685;DHT22;12020;51.384;6.908;2023-07-31T14:11:46;19.40;99.90
23685;DHT22;12020;51.384;6.908;2023-07-31T14:14:12;19.50;99.90
23685;DHT22;12020;51.384;6.908;2023-07-31T14:16:39;19.50;99.90
23685;DHT22;12020;51.384;6.908;2023-07-31T14:19:05;19.60;99.90
23685;DHT22;12020;51.384;6.908;2023-07-31T14:21:33;19.60;99.90
23685;DHT22;12020;51.384;6.908;2023-07-31T14:24:00;19.60;99.90
23685;DHT22;12020;51.384;6.908;2023-07-31T14:26:26;19.50;99.90
23685;DHT22;12020;51.384;6.908;2023-07-31T14:28:54;19.50;99.90
23685;DHT22;12020;51.384;6.908;2023-07-31T14:31:19;19.50;99.90
23685;DHT22;12020;51.384;6.908;2023-07-31T14:33:45;19.40;99.90
23685;DHT22;12020;51.384;6.908;2023-07-31T14:36:10;19.40;99.90
23685;DHT22;12020;51.384;6.908;2023-07-31T14:38:37;19.40;99.90
23685;DHT22;12020;51.384;6.908;2023-07-31T14:41:03;19.40;99.90
23685;DHT22;12020;51.384;6.908;2023-07-31T14:43:29;19.30;99.90
23685;DHT22;12020;51.384;6.908;2023-07-31T14:45:55;19.30;99.90
23685;DHT22;12020;51.384;6.908;2023-07-31T14:48:24;19.30;99.90
23685;DHT22;12020;51.384;6.908;2023-07-31T14:50:50;19.30;99.90
23685;DHT22;12020;51.384;6.908;2023-07-31T14:53:19;19.20;99.90
23685;DHT22;12020;51.384;6.908;2023-07-31T14:55:45;19.20;99.90
23685;DHT22;12020;51.384;6.908;2023-07-31T14:58:11;19.20;99.90
23685;DHT22;12020;51.384;6.908;2023-07-31T15:00:39;19.10;99.90
23685;DHT22;12020;51.384;6.908;2023-07-31T15:03:05;19.10;99.90
23685;DHT22;12020;51.384;6.908;2023-07-31T15:05:31;19.10;99.90
23685;DHT22;12020;51.384;6.908;2023-07-31T15:07:57;19.00;99.90
23685;DHT22;12020;51.384;6.908;2023-07-31T15:10:26;19.00;99.90
23685;DHT22;12020;51.384;6.908;2023-07-31T15:12:51;19.10;99.90
23685;DHT22;12020;51.384;6.908;2023-07-31T15:15:17;19.10;99.90
23685;DHT22;12020;51.384;6.908;2023-07-31T15:17:44;19.00;99.90
23685;DHT22;12020;51.384;6.908;2023-07-31T15:20:10;19.00;99.90
23685;DHT22;12020;51.384;6.908;2023-07-31T15:22:38;19.10;99.90
23685;DHT22;12020;51.384;6.908;2023-07-31T15:25:04;19.10;99.90
23685;DHT22;12020;51.384;6.908;2023-07-31T15:27:30;19.10;99.90
23685;DHT22;12020;51.384;6.908;2023-07-31T15:29:56;19.10;99.90
23685;DHT22;12020;51.384;6.908;2023-07-31T15:32:21;19.10;99.90
23685;DHT22;12020;51.384;6.908;2023-07-31T15:34:49;19.20;99.90
23685;DHT22;12020;51.384;6.908;2023-07-31T15:37:15;19.20;99.90
23685;DHT22;12020;51.384;6.908;2023-07-31T15:39:43;19.20;99.90
23685;DHT22;12020;51.384;6.908;2023-07-31T15:42:08;19.20;99.90
23685;DHT22;12020;51.384;6.908;2023-07-31T15:44:34;19.20;99.90
23685;DHT22;12020;51.384;6.908;2023-07-31T15:47:01;19.20;99.90
23685;DHT22;12020;51.384;6.908;2023-07-31T15:49:32;19.30;99.90
23685;DHT22;12020;51.384;6.908;2023-07-31T15:52:00;19.30;99.90
23685;DHT22;12020;51.384;6.908;2023-07-31T15:54:27;19.30;99.90